Skip Navigation Links Skip Navigation Links

Current Weather

Lewis University, Romeoville, Ill.

For information only: do not use for flight planning or navigation.
Latest weather
Observation time Sunday, October 13, 2019 5:55 PM CDT
Local time Sunday, October 13, 2019 6:06 PM CDT
Flight conditions Visual Meteorological Conditions
Winds
Wind direction Northwest (310°)
Wind speed 14 mph
Wind gusting to 18 mph
Visibility 10 mi.
Sky condition
Ceiling 6,000 ft. overcast
Cloud layer overcast 6,000 ft.
Temperature 50°F
Dewpoint 36°F
Altimeter 29.87 in.Hg
Derived measurements
Relative humidity 60%
Wind chill 44°F
Density altitude 219 ft.
Remarks
Fully automated report.
Automated weather observing station with precipitation discriminator.
METAR KLOT 132255Z AUTO 31012G16KT 10SM OVC060 10/03 A2987 RMK AO2 T00980025

Settings

Location code

InnerDrive.Weather 4.0.6770.0 Release CLR 4.0.30319.42000
Copyright ©2018 Inner Drive Technology. All rights reserved. Portions Copyright ©1986-2018 David Braverman.

Find weather

Site navigation


Skip Navigation Links

Place info

Page info

PayPal - The safer, easier way to pay online!

Return home.

Copyright ©2019 Inner Drive Technology. Purveyors of fine, hand-crafted computer software. Page printed 2019-10-13T23:06:19 UTC.